Weather Center

VHHH METAR :
VHHH 161600Z 09005KT 060V130 9999 SCT040 24/20 Q1015 NOSIG

VHHH TAF :
VHHH 161100Z 1612/1718 06010KT 7000 FEW015 SCT030 TX26/1706Z TN22/1623Z
TEMPO 1615/1618 4000 SHRA FEW010CB SCT030
TEMPO 1621/1703 4000 SHRA FEW010CB SCT030
TEMPO 1703/1709 33010KT

VMMC METAR :
VMMCH

VMMC TAF :
VMMC 161100Z 1612/1718 09008KT 9999 FEW010 SCT025
TEMPO 1615/1624 2500 SHRA FEW008 SCT015CB
TEMPO 1700/1706 3500 RA

Comments are closed